SHU5600 UHWW-UHHH
Flight info
| Callsign | SHU5600 |
|---|---|
| Flight time | N/A |
| Altitude | 33000 |
| Route | DOLMA2G DOLMA B356 TD B355 ARDEL ARDEL6F |
| Aircraft | A319/M-SDE3FGHIRWY/LB1 |
Departure
| Time | 2026-05-05 19:17 |
|---|---|
| Airport | Vladivostok International Airport (UHWW) |
Arrival
| Time | N/A |
|---|---|
| Airport | Khabarovsk Novy Airport (UHHH) |
| Time | Latitude | Longitude | Altitude | Speed | Heading |
|---|---|---|---|---|---|
| 2026-05-05 18:53 | 43.40004 | 132.16928 | 62 ft | 0 kts | 61° |
| 2026-05-05 18:54 | 43.40005 | 132.16929 | 69 ft | 0 kts | 61° |
| 2026-05-05 18:54 | 43.40013 | 132.16950 | 62 ft | 6 kts | 61° |
| 2026-05-05 18:54 | 43.40045 | 132.17031 | 65 ft | 13 kts | 61° |
| 2026-05-05 18:54 | 43.40048 | 132.17038 | 62 ft | 0 kts | 60° |
| 2026-05-05 18:55 | 43.40049 | 132.17041 | 63 ft | 1 kts | 60° |
| 2026-05-05 18:55 | 43.40052 | 132.17048 | 63 ft | 1 kts | 60° |
| 2026-05-05 18:55 | 43.40058 | 132.17062 | 63 ft | 4 kts | 59° |
| 2026-05-05 18:55 | 43.40109 | 132.17093 | 69 ft | 14 kts | 351° |
| 2026-05-05 18:56 | 43.40124 | 132.17086 | 69 ft | 0 kts | 333° |
| 2026-05-05 18:59 | 43.40127 | 132.17084 | 69 ft | 2 kts | 333° |
| 2026-05-05 19:00 | 43.40162 | 132.17057 | 64 ft | 0 kts | 329° |
| 2026-05-05 19:13 | 43.40168 | 132.17052 | 69 ft | 1 kts | 329° |
| 2026-05-05 19:13 | 43.40176 | 132.17045 | 69 ft | 2 kts | 329° |
| 2026-05-05 19:13 | 43.40201 | 132.17024 | 63 ft | 7 kts | 329° |
| 2026-05-05 19:14 | 43.40250 | 132.16987 | 69 ft | 7 kts | 333° |
| 2026-05-05 19:14 | 43.40296 | 132.16954 | 67 ft | 8 kts | 333° |
| 2026-05-05 19:14 | 43.40330 | 132.16930 | 69 ft | 0 kts | 333° |
| 2026-05-05 19:15 | 43.40335 | 132.16927 | 63 ft | 3 kts | 333° |
| 2026-05-05 19:16 | 43.40383 | 132.16893 | 61 ft | 11 kts | 333° |
| 2026-05-05 19:16 | 43.40428 | 132.16807 | 68 ft | 12 kts | 262° |
| 2026-05-05 19:16 | 43.40386 | 132.16686 | 62 ft | 16 kts | 241° |
| 2026-05-05 19:16 | 43.40244 | 132.16329 | 64 ft | 79 kts | 241° |
| 2026-05-05 19:17 | 43.39870 | 132.15399 | 62 ft | 141 kts | 241° |
| 2026-05-05 19:17 | 43.39315 | 132.14045 | 234 ft | 174 kts | 240° |
| 2026-05-05 19:17 | 43.38726 | 132.12588 | 890 ft | 174 kts | 240° |
| 2026-05-05 19:17 | 43.38142 | 132.11140 | 1595 ft | 173 kts | 240° |
| 2026-05-05 19:18 | 43.37549 | 132.09679 | 2073 ft | 186 kts | 239° |
| 2026-05-05 19:18 | 43.36879 | 132.08028 | 2391 ft | 208 kts | 240° |
| 2026-05-05 19:18 | 43.36142 | 132.06210 | 2832 ft | 225 kts | 240° |
| 2026-05-05 19:18 | 43.35376 | 132.04320 | 3688 ft | 227 kts | 240° |
| 2026-05-05 19:19 | 43.34628 | 132.02395 | 4536 ft | 233 kts | 246° |
| 2026-05-05 19:19 | 43.34484 | 132.00110 | 4998 ft | 255 kts | 284° |
| 2026-05-05 19:19 | 43.35464 | 131.98046 | 5777 ft | 269 kts | 319° |
| 2026-05-05 19:19 | 43.37220 | 131.97073 | 6627 ft | 282 kts | 352° |
| 2026-05-05 19:20 | 43.39153 | 131.97573 | 7441 ft | 297 kts | 24° |
| 2026-05-05 19:20 | 43.40766 | 131.99471 | 8196 ft | 309 kts | 51° |
| 2026-05-05 19:20 | 43.41945 | 132.01928 | 8997 ft | 316 kts | 57° |
| 2026-05-05 19:20 | 43.43103 | 132.04514 | 9756 ft | 320 kts | 57° |
| 2026-05-05 19:21 | 43.44288 | 132.07166 | 10287 ft | 335 kts | 57° |
| 2026-05-05 19:21 | 43.45582 | 132.09968 | 10529 ft | 359 kts | 52° |
| 2026-05-05 19:21 | 43.47163 | 132.12758 | 10730 ft | 380 kts | 46° |
| 2026-05-05 19:21 | 43.48989 | 132.15540 | 10881 ft | 402 kts | 43° |
| 2026-05-05 19:22 | 43.50989 | 132.18390 | 11009 ft | 423 kts | 42° |
| 2026-05-05 19:22 | 43.53082 | 132.21336 | 11358 ft | 436 kts | 42° |
| 2026-05-05 19:22 | 43.55203 | 132.24372 | 11927 ft | 442 kts | 43° |
| 2026-05-05 19:22 | 43.57290 | 132.27441 | 12489 ft | 447 kts | 43° |
| 2026-05-05 19:23 | 43.59404 | 132.30624 | 13021 ft | 453 kts | 44° |
| 2026-05-05 19:23 | 43.61523 | 132.33861 | 13594 ft | 457 kts | 44° |
| 2026-05-05 19:23 | 43.63654 | 132.37143 | 14212 ft | 460 kts | 45° |
| 2026-05-05 19:23 | 43.65794 | 132.40444 | 14768 ft | 464 kts | 45° |
| 2026-05-05 19:24 | 43.67959 | 132.43778 | 15330 ft | 467 kts | 45° |
| 2026-05-05 19:24 | 43.70142 | 132.47125 | 15808 ft | 470 kts | 45° |
| 2026-05-05 19:24 | 43.72344 | 132.50483 | 16323 ft | 473 kts | 45° |
| 2026-05-05 19:24 | 43.74561 | 132.53860 | 16792 ft | 476 kts | 45° |
| 2026-05-05 19:25 | 43.76765 | 132.57222 | 17238 ft | 479 kts | 45° |
| 2026-05-05 19:25 | 43.79008 | 132.60648 | 17704 ft | 482 kts | 45° |
| 2026-05-05 19:25 | 43.81325 | 132.64005 | 18121 ft | 483 kts | 40° |
| 2026-05-05 19:25 | 43.83842 | 132.67095 | 18579 ft | 484 kts | 38° |
| 2026-05-05 19:26 | 43.86372 | 132.70194 | 19003 ft | 486 kts | 38° |
| 2026-05-05 19:26 | 43.88904 | 132.73313 | 19439 ft | 488 kts | 38° |
| 2026-05-05 19:26 | 43.91445 | 132.76455 | 19830 ft | 490 kts | 38° |
| 2026-05-05 19:26 | 43.93995 | 132.79615 | 20218 ft | 493 kts | 38° |
| 2026-05-05 19:27 | 43.96551 | 132.82785 | 20604 ft | 494 kts | 38° |
| 2026-05-05 19:27 | 43.99090 | 132.85934 | 20940 ft | 497 kts | 39° |
| 2026-05-05 19:27 | 44.01671 | 132.89137 | 21291 ft | 499 kts | 38° |
| 2026-05-05 19:27 | 44.04263 | 132.92354 | 21594 ft | 501 kts | 38° |
| 2026-05-05 19:28 | 44.06874 | 132.95592 | 21901 ft | 504 kts | 38° |
| 2026-05-05 19:28 | 44.09492 | 132.98840 | 22227 ft | 506 kts | 38° |
| 2026-05-05 19:28 | 44.12118 | 133.02106 | 22535 ft | 507 kts | 38° |
| 2026-05-05 19:28 | 44.14751 | 133.05392 | 22837 ft | 509 kts | 38° |
| 2026-05-05 19:29 | 44.17392 | 133.08698 | 23126 ft | 511 kts | 38° |
| 2026-05-05 19:29 | 44.20017 | 133.11940 | 23406 ft | 511 kts | 35° |
| 2026-05-05 19:29 | 44.22848 | 133.14916 | 23690 ft | 511 kts | 32° |
| 2026-05-05 19:29 | 44.25714 | 133.17853 | 23973 ft | 512 kts | 32° |
| 2026-05-05 19:30 | 44.28588 | 133.20803 | 24238 ft | 513 kts | 32° |
| 2026-05-05 19:30 | 44.31467 | 133.23766 | 24476 ft | 515 kts | 32° |
| 2026-05-05 19:30 | 44.34352 | 133.26747 | 24733 ft | 517 kts | 32° |
| 2026-05-05 19:30 | 44.37244 | 133.29744 | 25046 ft | 517 kts | 32° |
| 2026-05-05 19:31 | 44.40124 | 133.32737 | 25433 ft | 516 kts | 32° |
| 2026-05-05 19:31 | 44.42999 | 133.35724 | 25801 ft | 514 kts | 32° |
| 2026-05-05 19:31 | 44.45831 | 133.38666 | 26113 ft | 514 kts | 32° |
| 2026-05-05 19:31 | 44.48702 | 133.41653 | 26456 ft | 514 kts | 31° |
| 2026-05-05 19:32 | 44.51572 | 133.44633 | 26837 ft | 513 kts | 31° |
| 2026-05-05 19:32 | 44.54438 | 133.47607 | 27209 ft | 513 kts | 31° |
| 2026-05-05 19:32 | 44.57301 | 133.50587 | 27581 ft | 512 kts | 31° |
| 2026-05-05 19:32 | 44.60159 | 133.53569 | 27967 ft | 511 kts | 31° |
| 2026-05-05 19:33 | 44.63006 | 133.56546 | 28330 ft | 511 kts | 31° |
| 2026-05-05 19:33 | 44.65845 | 133.59524 | 28706 ft | 509 kts | 31° |
| 2026-05-05 19:33 | 44.68645 | 133.62467 | 29043 ft | 509 kts | 31° |
| 2026-05-05 19:33 | 44.71483 | 133.65451 | 29398 ft | 509 kts | 31° |
| 2026-05-05 19:34 | 44.74315 | 133.68427 | 29758 ft | 508 kts | 30° |
| 2026-05-05 19:34 | 44.77147 | 133.71402 | 30124 ft | 508 kts | 30° |
| 2026-05-05 19:34 | 44.79977 | 133.74377 | 30485 ft | 507 kts | 30° |
| 2026-05-05 19:35 | 44.85620 | 133.80330 | 31169 ft | 507 kts | 30° |
| 2026-05-05 19:35 | 44.88438 | 133.83314 | 31530 ft | 506 kts | 30° |
| 2026-05-05 19:35 | 44.91246 | 133.86297 | 31897 ft | 505 kts | 30° |
| 2026-05-05 19:35 | 44.94024 | 133.89216 | 32250 ft | 504 kts | 29° |
| 2026-05-05 19:36 | 44.96865 | 133.92096 | 32615 ft | 501 kts | 28° |
| 2026-05-05 19:36 | 44.99723 | 133.94915 | 32797 ft | 501 kts | 27° |
| 2026-05-05 19:36 | 45.02603 | 133.97714 | 32836 ft | 504 kts | 27° |
| 2026-05-05 19:37 | 45.08377 | 134.03366 | 32820 ft | 506 kts | 27° |
| 2026-05-05 19:37 | 45.14146 | 134.09116 | 32823 ft | 508 kts | 28° |
| 2026-05-05 19:38 | 45.19864 | 134.14900 | 32823 ft | 509 kts | 28° |
| 2026-05-05 19:38 | 45.25623 | 134.20715 | 32825 ft | 508 kts | 27° |
| 2026-05-05 19:39 | 45.31381 | 134.26521 | 32824 ft | 508 kts | 27° |
| 2026-05-05 19:39 | 45.37144 | 134.32349 | 32818 ft | 508 kts | 27° |
| 2026-05-05 19:40 | 45.42861 | 134.38138 | 32818 ft | 508 kts | 27° |
| 2026-05-05 19:40 | 45.48615 | 134.43960 | 32820 ft | 507 kts | 27° |
| 2026-05-05 19:41 | 45.54351 | 134.49820 | 32815 ft | 507 kts | 27° |
| 2026-05-05 19:41 | 45.60091 | 134.55704 | 32816 ft | 508 kts | 27° |
| 2026-05-05 19:42 | 45.65787 | 134.61548 | 32816 ft | 507 kts | 27° |
| 2026-05-05 19:42 | 45.71520 | 134.67435 | 32816 ft | 508 kts | 27° |
| 2026-05-05 19:43 | 45.77257 | 134.73340 | 32807 ft | 508 kts | 28° |
| 2026-05-05 19:43 | 45.82999 | 134.79266 | 32804 ft | 509 kts | 28° |
| 2026-05-05 19:44 | 45.88936 | 134.84563 | 32805 ft | 494 kts | 14° |
| 2026-05-05 19:44 | 45.92077 | 134.86236 | 32804 ft | 483 kts | 6° |
| 2026-05-05 19:44 | 45.95311 | 134.87258 | 32805 ft | 471 kts | 358° |
| 2026-05-05 19:45 | 46.01773 | 134.88153 | 32803 ft | 466 kts | 355° |
| 2026-05-05 19:45 | 46.08235 | 134.89000 | 32802 ft | 466 kts | 354° |
| 2026-05-05 19:46 | 46.14684 | 134.89862 | 32799 ft | 465 kts | 354° |
| 2026-05-05 19:46 | 46.21086 | 134.90723 | 32795 ft | 465 kts | 354° |
| 2026-05-05 19:47 | 46.27533 | 134.91587 | 32791 ft | 465 kts | 354° |
| 2026-05-05 19:47 | 46.33980 | 134.92445 | 32785 ft | 465 kts | 354° |
| 2026-05-05 19:48 | 46.40417 | 134.93305 | 32784 ft | 465 kts | 354° |
| 2026-05-05 19:48 | 46.46822 | 134.94171 | 32783 ft | 465 kts | 354° |
| 2026-05-05 19:49 | 46.53264 | 134.95055 | 32779 ft | 465 kts | 354° |
| 2026-05-05 19:49 | 46.59715 | 134.95932 | 32775 ft | 465 kts | 354° |
| 2026-05-05 19:50 | 46.66162 | 134.96801 | 32776 ft | 465 kts | 354° |
| 2026-05-05 19:50 | 46.72565 | 134.97670 | 32772 ft | 465 kts | 354° |
| 2026-05-05 19:51 | 46.79008 | 134.98545 | 32766 ft | 465 kts | 354° |
| 2026-05-05 19:51 | 46.82242 | 134.99198 | 32760 ft | 476 kts | 1° |
| 2026-05-05 19:51 | 46.85467 | 135.00514 | 32760 ft | 483 kts | 6° |
| 2026-05-05 19:52 | 46.91904 | 135.03384 | 32757 ft | 484 kts | 6° |
| 2026-05-05 19:52 | 46.98347 | 135.06245 | 32757 ft | 484 kts | 6° |
| 2026-05-05 19:53 | 47.04748 | 135.09086 | 32755 ft | 484 kts | 6° |
| 2026-05-05 19:53 | 47.11196 | 135.11958 | 32754 ft | 484 kts | 6° |
| 2026-05-05 19:54 | 47.17640 | 135.14839 | 32751 ft | 484 kts | 6° |
| 2026-05-05 19:54 | 47.24085 | 135.17728 | 32748 ft | 484 kts | 6° |
| 2026-05-05 19:55 | 47.30533 | 135.20622 | 32744 ft | 485 kts | 6° |
| 2026-05-05 19:55 | 47.36936 | 135.23506 | 32744 ft | 485 kts | 6° |
| 2026-05-05 19:56 | 47.43390 | 135.26424 | 32743 ft | 485 kts | 6° |
| 2026-05-05 19:56 | 47.49835 | 135.29334 | 32744 ft | 484 kts | 5° |
| 2026-05-05 19:57 | 47.56276 | 135.32257 | 32740 ft | 484 kts | 6° |
| 2026-05-05 19:57 | 47.62677 | 135.35178 | 32736 ft | 484 kts | 5° |
| 2026-05-05 19:58 | 47.69115 | 135.38122 | 32733 ft | 484 kts | 5° |
| 2026-05-05 19:58 | 47.75560 | 135.41073 | 32740 ft | 484 kts | 5° |
| 2026-05-05 19:59 | 47.81993 | 135.44024 | 32749 ft | 483 kts | 5° |
| 2026-05-05 19:59 | 47.86242 | 135.45974 | 32752 ft | 482 kts | 5° |
| 2026-05-05 20:00 | 47.94767 | 135.49895 | 32750 ft | 481 kts | 5° |
| 2026-05-05 20:00 | 48.01158 | 135.52854 | 32748 ft | 481 kts | 5° |
| 2026-05-05 20:01 | 48.07244 | 135.55687 | 32743 ft | 481 kts | 5° |
| 2026-05-05 20:01 | 48.10428 | 135.57173 | 32432 ft | 476 kts | 5° |
| 2026-05-05 20:01 | 48.13598 | 135.58647 | 30930 ft | 481 kts | 5° |
| 2026-05-05 20:01 | 48.16824 | 135.60128 | 29293 ft | 488 kts | 4° |
| 2026-05-05 20:02 | 48.20111 | 135.61628 | 27850 ft | 499 kts | 4° |
| 2026-05-05 20:02 | 48.23420 | 135.63160 | 27170 ft | 493 kts | 5° |
| 2026-05-05 20:02 | 48.26629 | 135.64698 | 27035 ft | 475 kts | 5° |
| 2026-05-05 20:02 | 48.29712 | 135.66198 | 26905 ft | 457 kts | 4° |
| 2026-05-05 20:03 | 48.32687 | 135.67641 | 26775 ft | 441 kts | 3° |
| 2026-05-05 20:03 | 48.35524 | 135.68997 | 26645 ft | 426 kts | 3° |
| 2026-05-05 20:03 | 48.38307 | 135.70307 | 26523 ft | 413 kts | 2° |
| 2026-05-05 20:03 | 48.41011 | 135.71567 | 26394 ft | 401 kts | 1° |
| 2026-05-05 20:04 | 48.43634 | 135.72784 | 26272 ft | 389 kts | 1° |
| 2026-05-05 20:04 | 48.46181 | 135.73970 | 26103 ft | 378 kts | 1° |
| 2026-05-05 20:04 | 48.48677 | 135.75132 | 25769 ft | 373 kts | 0° |
| 2026-05-05 20:04 | 48.51140 | 135.76274 | 25397 ft | 369 kts | 1° |
| 2026-05-05 20:05 | 48.53583 | 135.77412 | 24991 ft | 366 kts | 0° |
| 2026-05-05 20:05 | 48.56009 | 135.78546 | 24572 ft | 364 kts | 1° |
| 2026-05-05 20:05 | 48.58389 | 135.79663 | 24163 ft | 362 kts | 1° |
| 2026-05-05 20:05 | 48.60790 | 135.80793 | 23518 ft | 366 kts | 1° |
| 2026-05-05 20:06 | 48.63247 | 135.81938 | 22984 ft | 368 kts | 2° |
| 2026-05-05 20:06 | 48.65654 | 135.83092 | 22802 ft | 359 kts | 2° |
| 2026-05-05 20:06 | 48.68007 | 135.84357 | 22472 ft | 367 kts | 12° |
| 2026-05-05 20:06 | 48.70139 | 135.86686 | 22136 ft | 393 kts | 37° |
| 2026-05-05 20:07 | 48.71640 | 135.90251 | 21766 ft | 413 kts | 65° |
| 2026-05-05 20:07 | 48.72129 | 135.94543 | 21394 ft | 417 kts | 94° |
| 2026-05-05 20:07 | 48.71496 | 135.98739 | 21013 ft | 404 kts | 122° |
| 2026-05-05 20:07 | 48.69947 | 136.02120 | 20626 ft | 380 kts | 147° |
| 2026-05-05 20:08 | 48.69314 | 136.02962 | 20510 ft | 370 kts | 155° |
| 2026-05-05 20:08 | 48.66083 | 136.05163 | 19925 ft | 327 kts | 186° |
| 2026-05-05 20:08 | 48.61459 | 136.04440 | 19043 ft | 289 kts | 210° |
| 2026-05-05 20:09 | 48.59545 | 136.03566 | 18674 ft | 286 kts | 212° |
| 2026-05-05 20:09 | 48.57664 | 136.02627 | 18311 ft | 284 kts | 213° |
| 2026-05-05 20:09 | 48.55797 | 136.01680 | 17965 ft | 283 kts | 212° |
| 2026-05-05 20:09 | 48.53934 | 136.00745 | 17620 ft | 282 kts | 212° |
| 2026-05-05 20:10 | 48.52129 | 135.99706 | 17278 ft | 270 kts | 221° |
| 2026-05-05 20:10 | 48.50637 | 135.98192 | 16928 ft | 256 kts | 233° |
| 2026-05-05 20:10 | 48.49459 | 135.96270 | 16570 ft | 245 kts | 244° |
| 2026-05-05 20:10 | 48.48629 | 135.94070 | 16198 ft | 238 kts | 254° |
| 2026-05-05 20:11 | 48.48165 | 135.91713 | 15821 ft | 233 kts | 264° |
| 2026-05-05 20:11 | 48.48057 | 135.89283 | 15436 ft | 232 kts | 274° |
| 2026-05-05 20:11 | 48.48304 | 135.86880 | 15069 ft | 233 kts | 284° |
| 2026-05-05 20:11 | 48.48898 | 135.84598 | 14705 ft | 236 kts | 295° |
| 2026-05-05 20:12 | 48.49813 | 135.82566 | 14353 ft | 240 kts | 305° |
| 2026-05-05 20:12 | 48.51053 | 135.80834 | 14002 ft | 248 kts | 317° |
| 2026-05-05 20:12 | 48.52584 | 135.79552 | 13665 ft | 257 kts | 330° |
| 2026-05-05 20:12 | 48.54335 | 135.78839 | 13334 ft | 266 kts | 343° |
| 2026-05-05 20:13 | 48.56221 | 135.78803 | 13008 ft | 277 kts | 358° |
| 2026-05-05 20:13 | 48.58131 | 135.79379 | 12704 ft | 282 kts | 5° |
| 2026-05-05 20:13 | 48.60020 | 135.80200 | 12397 ft | 282 kts | 8° |
| 2026-05-05 20:13 | 48.61887 | 135.81120 | 12104 ft | 282 kts | 9° |
| 2026-05-05 20:14 | 48.63709 | 135.82050 | 11676 ft | 279 kts | 10° |
| 2026-05-05 20:14 | 48.65537 | 135.82979 | 11149 ft | 276 kts | 10° |
| 2026-05-05 20:14 | 48.67358 | 135.83916 | 10584 ft | 278 kts | 15° |
| 2026-05-05 20:14 | 48.68966 | 135.85631 | 10020 ft | 292 kts | 44° |
| 2026-05-05 20:15 | 48.69908 | 135.88372 | 9686 ft | 300 kts | 75° |
| 2026-05-05 20:15 | 48.69922 | 135.91536 | 9669 ft | 306 kts | 105° |
| 2026-05-05 20:15 | 48.68977 | 135.94376 | 9671 ft | 303 kts | 136° |
| 2026-05-05 20:15 | 48.67299 | 135.96186 | 9669 ft | 293 kts | 165° |
| 2026-05-05 20:16 | 48.65371 | 135.96625 | 9673 ft | 280 kts | 192° |
| 2026-05-05 20:16 | 48.65299 | 135.96616 | 9673 ft | 279 kts | 193° |